createdAt,value
2023-09-16T00:00:13.957Z,53.14
2023-09-16T00:03:07.440Z,53.22
2023-09-16T00:05:41.124Z,53.16
2023-09-16T00:08:13.626Z,53.25
2023-09-16T00:10:46.978Z,53.34
2023-09-16T00:13:19.572Z,53.40
2023-09-16T00:15:52.205Z,53.33
2023-09-16T00:18:24.653Z,53.34
2023-09-16T00:20:57.151Z,53.35
2023-09-16T00:23:29.731Z,53.48
2023-09-16T00:26:05.006Z,53.47
2023-09-16T00:28:38.060Z,53.51
2023-09-16T00:31:12.939Z,53.58
2023-09-16T00:33:45.378Z,53.52
2023-09-16T00:36:17.769Z,53.45
2023-09-16T00:38:48.802Z,53.60
2023-09-16T00:41:21.379Z,53.75
2023-09-16T00:43:54.008Z,53.75
2023-09-16T00:46:27.747Z,53.80
2023-09-16T00:49:00.298Z,53.78
2023-09-16T00:51:32.798Z,53.83
2023-09-16T00:54:05.704Z,53.87
2023-09-16T00:56:39.599Z,53.97
2023-09-16T00:59:12.350Z,53.96
2023-09-16T01:01:51.300Z,54.01
2023-09-16T01:04:24.838Z,54.07
2023-09-16T01:06:57.457Z,54.13
2023-09-16T01:09:29.965Z,54.20
2023-09-16T01:12:02.431Z,54.28
2023-09-16T01:14:35.589Z,54.24
2023-09-16T01:17:12.098Z,54.32
2023-09-16T01:19:50.082Z,54.33
2023-09-16T01:22:23.137Z,54.35
2023-09-16T01:24:57.751Z,54.44
2023-09-16T01:27:30.326Z,54.58
2023-09-16T01:30:03.809Z,54.56
2023-09-16T01:32:44.458Z,54.54
2023-09-16T01:35:18.572Z,54.59
2023-09-16T01:37:54.192Z,54.68
2023-09-16T01:40:27.637Z,54.70
2023-09-16T01:43:04.359Z,54.74
2023-09-16T01:45:45.690Z,54.76
2023-09-16T01:48:18.294Z,54.78
2023-09-16T01:50:51.236Z,54.79
2023-09-16T01:53:26.824Z,54.85
2023-09-16T01:55:59.302Z,54.82
2023-09-16T01:58:30.001Z,54.78
2023-09-16T02:01:02.607Z,54.94
2023-09-16T02:03:33.834Z,54.84
2023-09-16T02:06:07.471Z,54.96
2023-09-16T02:08:39.841Z,55.03
2023-09-16T02:11:10.446Z,55.12
2023-09-16T02:13:42.856Z,55.05
2023-09-16T02:16:15.986Z,55.07
2023-09-16T02:18:48.718Z,55.02
2023-09-16T02:21:22.957Z,55.07
2023-09-16T02:23:55.435Z,54.93
2023-09-16T02:26:27.926Z,55.05
2023-09-16T02:29:00.434Z,55.14
2023-09-16T02:31:31.229Z,54.99
2023-09-16T02:34:04.103Z,55.14
2023-09-16T02:36:37.829Z,55.20
2023-09-16T02:39:10.438Z,55.18
2023-09-16T02:41:42.805Z,55.33
2023-09-16T02:44:15.434Z,55.20
2023-09-16T02:46:46.119Z,55.11
2023-09-16T02:49:18.469Z,55.29
2023-09-16T02:51:51.182Z,55.19
2023-09-16T02:54:23.598Z,55.17
2023-09-16T02:56:54.255Z,55.21
2023-09-16T02:59:26.780Z,55.21
2023-09-16T03:01:59.452Z,55.29
2023-09-16T03:04:31.924Z,55.22
2023-09-16T03:07:02.766Z,55.21
2023-09-16T03:09:35.277Z,55.35
2023-09-16T03:12:10.549Z,55.26
2023-09-16T03:14:42.920Z,55.28
2023-09-16T03:17:13.534Z,55.27
2023-09-16T03:19:46.518Z,55.42
2023-09-16T03:22:18.972Z,55.41
2023-09-16T03:24:49.992Z,55.35
2023-09-16T03:27:22.488Z,55.30
2023-09-16T03:29:54.951Z,55.34
2023-09-16T03:32:28.648Z,55.33
2023-09-16T03:35:00.997Z,55.36
2023-09-16T03:37:33.303Z,55.25
2023-09-16T03:40:04.206Z,55.30
2023-09-16T03:42:40.314Z,55.21
2023-09-16T03:45:26.942Z,55.22
2023-09-16T03:48:01.289Z,55.30
2023-09-16T03:50:32.091Z,55.17
2023-09-16T03:53:11.138Z,55.32
2023-09-16T03:55:43.951Z,55.23
2023-09-16T03:58:16.405Z,55.25
2023-09-16T04:00:49.236Z,55.13
2023-09-16T04:03:21.696Z,55.16
2023-09-16T04:05:55.949Z,55.20
2023-09-16T04:08:37.960Z,55.34
2023-09-16T04:11:14.477Z,55.30
2023-09-16T04:13:47.052Z,55.28
2023-09-16T04:16:19.768Z,55.24
2023-09-16T04:18:54.624Z,55.35
2023-09-16T04:21:27.811Z,55.32
2023-09-16T04:24:00.188Z,55.19
2023-09-16T04:26:30.900Z,55.15
2023-09-16T04:29:04.052Z,55.32
2023-09-16T04:31:36.682Z,55.21
2023-09-16T04:34:09.040Z,55.20
2023-09-16T04:36:40.581Z,55.14
2023-09-16T04:39:13.022Z,55.32
2023-09-16T04:41:43.737Z,55.32
2023-09-16T04:44:16.020Z,55.39
2023-09-16T04:46:48.625Z,55.31
2023-09-16T04:49:21.195Z,55.40
2023-09-16T04:51:55.271Z,55.43
2023-09-16T04:54:27.925Z,55.30
2023-09-16T04:56:58.948Z,55.31
2023-09-16T04:59:33.894Z,55.31
2023-09-16T05:02:06.527Z,55.34
2023-09-16T05:04:39.054Z,55.29
2023-09-16T05:07:09.828Z,55.23
2023-09-16T05:09:42.426Z,55.36
2023-09-16T05:12:14.936Z,55.42
2023-09-16T05:14:47.332Z,55.44
2023-09-16T05:17:20.157Z,55.32
2023-09-16T05:19:52.675Z,55.37
2023-09-16T05:22:23.381Z,55.32
2023-09-16T05:24:55.678Z,55.37
2023-09-16T05:27:26.489Z,55.32
2023-09-16T05:29:58.921Z,55.42
2023-09-16T05:32:29.700Z,55.34
2023-09-16T05:35:02.183Z,55.40
2023-09-16T05:37:34.900Z,55.44
2023-09-16T05:40:08.770Z,55.45
2023-09-16T05:42:41.469Z,55.46
2023-09-16T05:45:14.545Z,55.51
2023-09-16T05:47:49.717Z,55.43
2023-09-16T05:50:22.484Z,55.32
2023-09-16T05:52:54.974Z,55.36
2023-09-16T05:55:27.334Z,55.33
2023-09-16T05:57:59.959Z,55.30
2023-09-16T06:00:32.386Z,55.46
2023-09-16T06:03:05.017Z,55.34
2023-09-16T06:05:37.646Z,55.32
2023-09-16T06:08:11.945Z,55.30
2023-09-16T06:10:44.236Z,55.27
2023-09-16T06:13:16.772Z,55.13
2023-09-16T06:15:49.363Z,55.06
2023-09-16T06:18:21.952Z,55.09
2023-09-16T06:20:54.645Z,55.06
2023-09-16T06:23:29.892Z,55.06
2023-09-16T06:26:03.503Z,55.05
2023-09-16T06:28:36.097Z,55.17
2023-09-16T06:31:10.964Z,55.06
2023-09-16T06:33:43.578Z,54.95
2023-09-16T06:36:18.974Z,54.78
2023-09-16T06:38:51.557Z,54.72
2023-09-16T06:41:25.635Z,54.60
2023-09-16T06:43:58.302Z,54.56
2023-09-16T06:46:31.056Z,54.59
2023-09-16T06:49:03.490Z,54.35
2023-09-16T06:51:36.330Z,54.50
2023-09-16T06:54:09.441Z,54.56
2023-09-16T06:56:41.936Z,54.48
2023-09-16T06:59:14.633Z,54.41
2023-09-16T07:01:50.924Z,54.60
2023-09-16T07:04:27.845Z,54.08
2023-09-16T07:07:01.685Z,54.06
2023-09-16T07:09:33.708Z,54.02
2023-09-16T07:12:09.737Z,54.08
2023-09-16T07:14:42.859Z,54.19
2023-09-16T07:17:15.127Z,53.98
2023-09-16T07:19:49.839Z,53.97
2023-09-16T07:22:26.601Z,54.08
2023-09-16T07:25:04.057Z,54.02
2023-09-16T07:27:38.394Z,53.89
2023-09-16T07:30:12.529Z,53.96
2023-09-16T07:32:47.054Z,53.87
2023-09-16T07:35:19.577Z,53.95
2023-09-16T07:37:50.210Z,53.75
2023-09-16T07:40:22.863Z,53.76
2023-09-16T07:42:57.591Z,53.73
2023-09-16T07:45:34.825Z,53.84
2023-09-16T07:48:10.627Z,53.68
2023-09-16T07:50:43.360Z,53.59
2023-09-16T07:53:17.075Z,53.61
2023-09-16T07:55:49.461Z,53.70
2023-09-16T07:58:22.658Z,53.44
2023-09-16T08:00:55.792Z,53.62
2023-09-16T08:03:33.378Z,53.24
2023-09-16T08:06:06.088Z,53.42
2023-09-16T08:08:38.499Z,53.45
2023-09-16T08:11:12.594Z,53.23
2023-09-16T08:13:45.094Z,53.40
2023-09-16T08:16:20.050Z,53.28
2023-09-16T08:18:53.136Z,53.29
2023-09-16T08:21:26.232Z,53.21
2023-09-16T08:24:02.518Z,53.38
2023-09-16T08:26:35.314Z,53.05
2023-09-16T08:29:11.322Z,53.04
2023-09-16T08:31:45.657Z,53.11
2023-09-16T08:34:18.356Z,52.87
2023-09-16T08:36:50.878Z,52.95
2023-09-16T08:39:23.594Z,52.93
2023-09-16T08:42:02.203Z,52.93
2023-09-16T08:44:41.442Z,52.89
2023-09-16T08:47:21.614Z,52.94
2023-09-16T08:49:58.447Z,52.90
2023-09-16T08:52:36.309Z,52.78
2023-09-16T08:55:15.806Z,53.09
2023-09-16T08:57:50.837Z,52.71
2023-09-16T09:00:28.738Z,52.74
2023-09-16T09:03:03.720Z,52.81
2023-09-16T09:05:38.817Z,52.94
2023-09-16T09:08:13.965Z,52.86
2023-09-16T09:10:46.625Z,52.72
2023-09-16T09:13:21.903Z,52.73
2023-09-16T09:16:01.701Z,52.77
2023-09-16T09:18:34.912Z,52.82
2023-09-16T09:21:11.351Z,52.52
2023-09-16T09:23:47.395Z,52.57
2023-09-16T09:26:20.067Z,52.46
2023-09-16T09:28:54.984Z,52.75
2023-09-16T09:31:27.671Z,52.67
2023-09-16T09:34:03.699Z,52.53
2023-09-16T09:36:43.491Z,52.35
2023-09-16T09:39:16.012Z,52.40
2023-09-16T09:41:50.892Z,52.37
2023-09-16T09:44:24.879Z,52.55
2023-09-16T09:46:57.345Z,52.50
2023-09-16T09:49:30.711Z,52.40
2023-09-16T09:52:05.968Z,52.39
2023-09-16T09:54:40.958Z,52.25
2023-09-16T09:57:17.432Z,52.26
2023-09-16T09:59:52.341Z,52.26
2023-09-16T10:02:29.351Z,52.26
2023-09-16T10:05:04.875Z,52.33
2023-09-16T10:07:54.718Z,52.05
2023-09-16T10:10:28.977Z,52.10
2023-09-16T10:13:22.441Z,51.93
2023-09-16T10:16:02.909Z,52.36
2023-09-16T10:18:39.259Z,52.03
2023-09-16T10:21:16.354Z,52.15
2023-09-16T10:23:51.367Z,52.13
2023-09-16T10:26:31.738Z,52.02
2023-09-16T10:29:08.762Z,51.89
2023-09-16T10:31:45.216Z,51.96
2023-09-16T10:34:26.241Z,52.06
2023-09-16T10:37:02.976Z,51.88
2023-09-16T10:39:39.240Z,51.80
2023-09-16T10:42:18.234Z,52.14
2023-09-16T10:44:52.839Z,52.13
2023-09-16T10:47:28.198Z,52.07
2023-09-16T10:50:04.140Z,52.13
2023-09-16T10:52:43.889Z,52.03
2023-09-16T11:01:31.791Z,52.06
2023-09-16T11:04:12.041Z,51.90
2023-09-16T11:06:48.973Z,52.12
2023-09-16T11:09:25.905Z,51.90
2023-09-16T11:11:58.843Z,51.97
2023-09-16T11:14:31.611Z,51.96
2023-09-16T11:17:15.953Z,52.10
2023-09-16T11:19:49.086Z,51.95
2023-09-16T11:22:21.615Z,52.01
2023-09-16T11:24:57.467Z,51.86
2023-09-16T11:27:30.492Z,52.06
2023-09-16T11:30:14.142Z,51.81
2023-09-16T11:33:25.940Z,51.84
2023-09-16T11:36:13.469Z,51.97
2023-09-16T11:39:00.361Z,51.83
2023-09-16T11:41:32.996Z,51.76
2023-09-16T11:44:07.468Z,51.68
2023-09-16T11:46:40.788Z,51.87
2023-09-16T11:49:16.867Z,52.01
2023-09-16T11:51:52.599Z,52.01
2023-09-16T11:54:26.127Z,51.81
2023-09-16T11:56:59.565Z,51.82
2023-09-16T11:59:32.993Z,51.60
2023-09-16T12:02:05.865Z,51.70
2023-09-16T12:04:38.732Z,51.89
2023-09-16T12:07:15.212Z,51.70
2023-09-16T12:10:02.068Z,51.77
2023-09-16T12:12:37.153Z,51.72
2023-09-16T12:15:14.346Z,51.93
2023-09-16T12:17:50.411Z,51.70
2023-09-16T12:20:29.420Z,51.61
2023-09-16T12:23:09.058Z,51.66
2023-09-16T12:25:47.102Z,51.83
2023-09-16T12:28:30.361Z,51.56
2023-09-16T12:31:04.371Z,51.56
2023-09-16T12:33:56.178Z,51.35
2023-09-16T12:36:41.083Z,51.28
2023-09-16T12:39:20.098Z,51.07
2023-09-16T12:42:16.472Z,50.93
2023-09-16T12:44:54.645Z,50.69
2023-09-16T12:47:32.858Z,50.78
2023-09-16T12:50:07.972Z,50.81
2023-09-16T12:52:48.645Z,50.76
2023-09-16T12:55:32.733Z,50.81
2023-09-16T12:58:15.975Z,50.41
2023-09-16T13:01:02.496Z,50.41
2023-09-16T13:03:42.939Z,50.38
2023-09-16T13:06:20.319Z,50.32
2023-09-16T13:08:55.825Z,50.30
2023-09-16T13:11:44.544Z,50.23
2023-09-16T13:14:24.125Z,50.09
2023-09-16T13:17:00.245Z,49.94
2023-09-16T13:19:36.089Z,50.02
2023-09-16T13:22:18.450Z,50.10
2023-09-16T13:25:03.880Z,50.01
2023-09-16T13:27:40.510Z,49.96
2023-09-16T13:30:26.487Z,49.93
2023-09-16T13:33:00.334Z,49.98
2023-09-16T13:35:38.387Z,50.00
2023-09-16T13:38:12.122Z,49.98
2023-09-16T13:40:51.530Z,50.04
2023-09-16T13:43:24.109Z,50.01
2023-09-16T13:45:57.690Z,50.01
2023-09-16T13:48:32.951Z,50.15
2023-09-16T13:51:05.480Z,50.11
2023-09-16T13:53:38.131Z,50.13
2023-09-16T13:56:10.558Z,50.33
2023-09-16T13:58:44.685Z,50.17
2023-09-16T14:01:17.377Z,50.07
2023-09-16T14:03:50.223Z,50.09
2023-09-16T14:06:24.004Z,50.12
2023-09-16T14:08:56.387Z,50.11
2023-09-16T14:11:28.881Z,50.24
2023-09-16T14:14:01.646Z,50.24
2023-09-16T14:16:35.417Z,50.44
2023-09-16T14:19:08.901Z,50.23
2023-09-16T14:21:42.237Z,50.33
2023-09-16T14:24:14.926Z,50.21
2023-09-16T14:26:47.296Z,50.22
2023-09-16T14:29:19.737Z,50.20
2023-09-16T14:31:52.505Z,50.40
2023-09-16T14:34:24.960Z,50.39
2023-09-16T14:36:57.408Z,50.38
2023-09-16T14:39:29.983Z,50.44
2023-09-16T14:42:02.577Z,50.40
2023-09-16T14:44:37.286Z,50.28
2023-09-16T14:47:09.995Z,50.54
2023-09-16T14:49:42.619Z,50.37
2023-09-16T14:52:15.731Z,50.50
2023-09-16T14:54:48.208Z,50.78
2023-09-16T14:57:20.912Z,50.69
2023-09-16T14:59:51.537Z,50.89
2023-09-16T15:02:24.127Z,50.59
2023-09-16T15:04:58.252Z,50.88
2023-09-16T15:07:30.777Z,50.64
2023-09-16T15:10:03.457Z,50.75
2023-09-16T15:12:36.122Z,51.05
2023-09-16T15:15:11.303Z,51.09
2023-09-16T15:17:43.969Z,50.92
2023-09-16T15:20:16.803Z,51.22
2023-09-16T15:22:49.418Z,51.20
2023-09-16T15:25:22.070Z,51.40
2023-09-16T15:27:55.400Z,51.35
2023-09-16T15:30:28.560Z,51.17
2023-09-16T15:33:01.070Z,51.23
2023-09-16T15:35:36.373Z,51.33
2023-09-16T15:38:09.070Z,51.24
2023-09-16T15:40:41.474Z,51.37
2023-09-16T15:43:12.102Z,51.33
2023-09-16T15:45:44.422Z,51.44
2023-09-16T15:48:15.120Z,51.40
2023-09-16T15:50:50.719Z,51.68
2023-09-16T15:53:23.486Z,51.56
2023-09-16T15:55:56.246Z,51.44
2023-09-16T15:58:28.866Z,51.57
2023-09-16T16:01:01.441Z,51.36
2023-09-16T16:03:35.883Z,51.53
2023-09-16T16:06:08.596Z,51.67
2023-09-16T16:08:42.984Z,51.54
2023-09-16T16:11:15.525Z,51.75
2023-09-16T16:13:48.408Z,51.60
2023-09-16T16:16:21.491Z,51.74
2023-09-16T16:18:54.279Z,51.90
2023-09-16T16:21:27.228Z,51.80
2023-09-16T16:23:59.739Z,52.10
2023-09-16T16:26:33.201Z,51.86
2023-09-16T16:29:05.767Z,51.93
2023-09-16T16:31:38.280Z,51.95
2023-09-16T16:34:10.880Z,52.02
2023-09-16T16:36:44.414Z,51.96
2023-09-16T16:39:16.808Z,51.92
2023-09-16T16:41:50.455Z,52.11
2023-09-16T16:44:22.968Z,52.24
2023-09-16T16:47:00.748Z,52.41
2023-09-16T16:49:34.133Z,52.19
2023-09-16T16:52:06.942Z,52.22
2023-09-16T16:54:39.496Z,52.44
2023-09-16T16:57:11.784Z,52.21
2023-09-16T16:59:44.914Z,52.50
2023-09-16T17:02:17.533Z,52.66
2023-09-16T17:04:51.895Z,52.74
2023-09-16T17:07:24.582Z,52.67
2023-09-16T17:09:57.529Z,52.84
2023-09-16T17:12:30.150Z,52.80
2023-09-16T17:15:02.581Z,52.72
2023-09-16T17:17:35.066Z,52.99
2023-09-16T17:20:10.027Z,52.91
2023-09-16T17:22:42.640Z,52.77
2023-09-16T17:25:17.246Z,52.98
2023-09-16T17:27:49.705Z,53.16
2023-09-16T17:30:20.401Z,53.03
2023-09-16T17:32:53.788Z,53.27
2023-09-16T17:35:26.332Z,53.17
2023-09-16T17:37:59.050Z,53.21
2023-09-16T17:40:31.744Z,53.25
2023-09-16T17:43:04.587Z,53.34
2023-09-16T17:45:37.135Z,53.38
2023-09-16T17:48:09.804Z,53.30
2023-09-16T17:50:42.379Z,53.38
2023-09-16T17:53:14.813Z,53.47
2023-09-16T17:55:47.501Z,53.47
2023-09-16T17:58:20.476Z,53.50
2023-09-16T18:00:53.576Z,53.90
2023-09-16T18:03:26.212Z,53.64
2023-09-16T18:05:58.734Z,53.65
2023-09-16T18:08:35.758Z,53.87
2023-09-16T18:11:08.525Z,53.93
2023-09-16T18:13:41.084Z,53.81
2023-09-16T18:16:15.462Z,53.90
2023-09-16T18:18:48.481Z,53.98
2023-09-16T18:21:21.408Z,54.04
2023-09-16T18:23:54.392Z,54.09
2023-09-16T18:26:27.117Z,54.14
2023-09-16T18:29:00.436Z,54.16
2023-09-16T18:31:32.961Z,54.20
2023-09-16T18:34:05.844Z,54.32
2023-09-16T18:36:38.655Z,54.24
2023-09-16T18:39:11.596Z,54.43
2023-09-16T18:41:44.431Z,54.51
2023-09-16T18:44:17.642Z,54.43
2023-09-16T18:46:51.651Z,54.60
2023-09-16T18:49:28.556Z,54.82
2023-09-16T18:52:01.492Z,54.74
2023-09-16T18:54:35.368Z,54.92
2023-09-16T18:57:09.370Z,54.90
2023-09-16T18:59:42.029Z,54.95
2023-09-16T19:02:15.037Z,54.91
2023-09-16T19:04:47.817Z,55.11
2023-09-16T19:07:23.448Z,55.07
2023-09-16T19:09:57.976Z,55.44
2023-09-16T19:12:30.329Z,55.33
2023-09-16T19:15:04.346Z,55.49
2023-09-16T19:17:36.887Z,55.43
2023-09-16T19:20:12.226Z,55.57
2023-09-16T19:22:44.690Z,55.51
2023-09-16T19:25:16.206Z,55.46
2023-09-16T19:27:48.682Z,55.56
2023-09-16T19:30:19.598Z,55.70
2023-09-16T19:32:52.914Z,55.88
2023-09-16T19:35:27.299Z,56.00
2023-09-16T19:37:59.852Z,55.98
2023-09-16T19:40:32.330Z,56.03
2023-09-16T19:43:05.362Z,56.04
2023-09-16T19:45:38.038Z,56.18
2023-09-16T19:48:10.637Z,56.24
2023-09-16T19:50:44.251Z,56.27
2023-09-16T19:53:17.286Z,56.41
2023-09-16T19:55:50.257Z,56.48
2023-09-16T19:58:22.894Z,56.58
2023-09-16T20:01:01.511Z,56.56
2023-09-16T20:03:35.035Z,56.69
2023-09-16T20:06:14.974Z,56.78
2023-09-16T20:08:47.652Z,56.78
2023-09-16T20:11:26.998Z,56.85
2023-09-16T20:14:05.545Z,57.06
2023-09-16T20:16:41.600Z,56.96
2023-09-16T20:19:21.430Z,57.12
2023-09-16T20:21:59.135Z,56.99
2023-09-16T20:24:34.541Z,57.13
2023-09-16T20:27:10.380Z,57.13
2023-09-16T20:29:43.312Z,57.24
2023-09-16T20:32:20.316Z,57.31
2023-09-16T20:34:59.864Z,57.32
2023-09-16T20:37:44.126Z,57.37
2023-09-16T20:40:23.874Z,57.47
2023-09-16T20:42:56.486Z,57.60
2023-09-16T20:45:31.667Z,57.53
2023-09-16T20:48:07.474Z,57.64
2023-09-16T20:50:42.859Z,57.63
2023-09-16T20:53:16.151Z,57.65
2023-09-16T20:55:55.336Z,57.61
2023-09-16T20:58:27.901Z,57.71
2023-09-16T21:01:00.841Z,57.75
2023-09-16T21:03:40.819Z,57.81
2023-09-16T21:06:19.028Z,57.78
2023-09-16T21:08:52.060Z,57.77
2023-09-16T21:11:27.833Z,57.83
2023-09-16T21:14:08.869Z,57.89
2023-09-16T21:16:43.194Z,57.88
2023-09-16T21:19:15.882Z,57.82
2023-09-16T21:21:54.521Z,57.72
2023-09-16T21:24:30.229Z,57.84
2023-09-16T21:27:05.769Z,57.85
2023-09-16T21:29:42.594Z,57.83
2023-09-16T21:32:15.473Z,57.89
2023-09-16T21:34:48.439Z,57.86
2023-09-16T21:37:23.412Z,57.84
2023-09-16T21:39:56.535Z,57.85
2023-09-16T21:42:34.099Z,57.92
2023-09-16T21:45:10.928Z,57.86
2023-09-16T21:47:43.714Z,57.89
2023-09-16T21:50:16.448Z,57.81
2023-09-16T21:52:50.519Z,57.85
2023-09-16T21:55:26.064Z,57.82
2023-09-16T21:57:58.790Z,57.95
2023-09-16T22:00:35.963Z,57.95
2023-09-16T22:03:09.348Z,57.89
2023-09-16T22:05:42.910Z,57.85
2023-09-16T22:08:15.368Z,57.94
2023-09-16T22:10:48.071Z,57.94
2023-09-16T22:13:20.723Z,58.09
2023-09-16T22:15:54.540Z,57.98
2023-09-16T22:18:27.049Z,57.91
2023-09-16T22:20:57.874Z,57.96
2023-09-16T22:23:30.406Z,57.99
2023-09-16T22:26:08.342Z,57.98
2023-09-16T22:28:41.164Z,57.91
2023-09-16T22:31:17.297Z,57.94
2023-09-16T22:33:50.388Z,58.06
2023-09-16T22:36:25.262Z,58.10
2023-09-16T22:38:58.180Z,58.16
2023-09-16T22:41:30.847Z,58.16
2023-09-16T22:44:04.156Z,58.19
2023-09-16T22:46:37.526Z,58.28
2023-09-16T22:49:10.608Z,58.15
2023-09-16T22:51:43.260Z,58.16
2023-09-16T22:54:14.051Z,58.11
2023-09-16T22:56:46.504Z,58.22
2023-09-16T22:59:17.257Z,58.27
2023-09-16T23:01:49.991Z,58.33
2023-09-16T23:04:22.630Z,58.38
2023-09-16T23:06:55.963Z,58.39
2023-09-16T23:09:28.694Z,58.29
2023-09-16T23:12:01.863Z,58.40
2023-09-16T23:14:35.192Z,58.56
2023-09-16T23:17:08.468Z,58.45
2023-09-16T23:19:42.394Z,58.49
2023-09-16T23:22:15.107Z,58.59
2023-09-16T23:24:49.930Z,58.62
2023-09-16T23:27:22.563Z,58.41
2023-09-16T23:29:53.399Z,58.47
2023-09-16T23:32:25.974Z,58.52
2023-09-16T23:34:58.437Z,58.51
2023-09-16T23:37:29.364Z,58.53
2023-09-16T23:40:01.907Z,58.42
2023-09-16T23:42:34.739Z,58.45
2023-09-16T23:45:08.810Z,58.55
2023-09-16T23:47:41.344Z,58.53
2023-09-16T23:50:14.389Z,58.49
2023-09-16T23:52:46.909Z,58.52
2023-09-16T23:55:19.618Z,58.60
2023-09-16T23:57:52.311Z,58.61
